Wiconisco, Pennsylvania
Current Conditions -  °F | °C
As of 4:58 PM on Thursday 18 Dec 2014 (Local Time) from KMUI Reporting Station
Overcast Overcast  
Wind Chill: -4°   Ceiling: 2800
Heat Index:   Visibility: 10mi
Dew Point: -4°   Wind: 10mph
Humidity: 72%   Direction: 290°WNW
Pressure: 30.06"   Gusts: NA
Location:  40.57°N, 76.69°W
Report Text: KMUI 182158Z AUTO 29009KT 10SM FEW022 OVC028 01/M04 A3006 RMK AO2 SLP187 T00091036
Loading
Personal Weather Stations






























Interactive Weather Map New forecast layout! Learn more

10-Day Weather Forecast

Advertisements
Track Severe Weather on mobile